Time;durP1;ratioP1;P1;durP2;ratioP2;P2;SDS_P1;SDS_P2;PMS_P1;PMS_P2;Temp;Humidity;BMP_temperature;BMP_pressure;BME280_temperature;BME280_humidity;BME280_pressure;Samples;Min_cycle;Max_cycle;Signal;HPM_P1;HPM_P2
2022/12/26 00:01:18;;;;;;;5.33;3.47;;;9.90;99.90;;;;;;5015319;28;20285;-72
2022/12/26 00:03:43;;;;;;;4.83;3.57;;;9.90;99.90;;;;;;5029692;28;20446;-72
2022/12/26 00:06:18;;;;;;;6.00;4.30;;;9.90;99.90;;;;;;5012359;28;20459;-71
2022/12/26 00:08:44;;;;;;;5.47;3.60;;;9.90;99.90;;;;;;5021549;28;20602;-72
2022/12/26 00:11:10;;;;;;;4.27;3.60;;;9.90;99.90;;;;;;5028290;28;21019;-72
2022/12/26 00:13:41;;;;;;;5.47;3.40;;;9.90;99.90;;;;;;5032148;28;20471;-72
2022/12/26 00:16:12;;;;;;;3.70;3.07;;;9.90;99.90;;;;;;5014012;28;20482;-72
2022/12/26 00:18:38;;;;;;;4.47;3.73;;;9.90;99.90;;;;;;5033726;28;20526;-72
2022/12/26 00:21:05;;;;;;;3.73;2.93;;;9.90;99.90;;;;;;5047335;28;20486;-72
2022/12/26 00:23:33;;;;;;;5.00;3.47;;;9.90;99.90;;;;;;5018473;28;21044;-72
2022/12/26 00:26:07;;;;;;;3.87;3.20;;;9.90;99.90;;;;;;5030490;28;20458;-73
2022/12/26 00:28:33;;;;;;;3.77;3.07;;;9.90;99.90;;;;;;5013921;28;20476;-71
2022/12/26 00:31:06;;;;;;;5.33;3.30;;;9.90;99.90;;;;;;5014068;28;20482;-72
2022/12/26 00:33:35;;;;;;;4.40;3.43;;;9.90;99.90;;;;;;5014818;28;20250;-73
2022/12/26 00:36:08;;;;;;;3.60;2.93;;;9.90;99.90;;;;;;5014621;28;20473;-72
2022/12/26 00:38:36;;;;;;;4.27;3.13;;;9.90;99.90;;;;;;5045565;28;20459;-71
2022/12/26 00:41:02;;;;;;;3.27;2.97;;;9.90;99.90;;;;;;5014314;28;20511;-72
2022/12/26 00:43:28;;;;;;;4.10;2.77;;;9.90;99.90;;;;;;5045580;28;20450;-72
2022/12/26 00:45:54;;;;;;;4.40;3.43;;;9.90;99.90;;;;;;5030421;28;20993;-72
2022/12/26 00:48:19;;;;;;;5.37;3.40;;;9.90;99.90;;;;;;5030777;28;20227;-72
2022/12/26 00:50:45;;;;;;;3.90;3.03;;;9.90;99.90;;;;;;5010292;28;20298;-70
2022/12/26 00:53:11;;;;;;;4.60;3.20;;;9.90;99.90;;;;;;5012782;28;20315;-72
2022/12/26 00:55:36;;;;;;;3.87;3.30;;;9.90;99.90;;;;;;5028261;28;20223;-72
2022/12/26 00:58:02;;;;;;;4.13;3.00;;;9.90;99.90;;;;;;5028843;28;20227;-72
2022/12/26 01:00:28;;;;;;;4.27;2.90;;;9.90;99.90;;;;;;5033742;28;20226;-71
2022/12/26 01:02:53;;;;;;;3.80;2.90;;;9.90;99.90;;;;;;5030882;28;20224;-72
2022/12/26 01:05:19;;;;;;;4.93;3.30;;;9.90;99.90;;;;;;5014315;28;20242;-72
2022/12/26 01:07:45;;;;;;;11.33;4.00;;;9.80;99.90;;;;;;5009378;28;20220;-72
2022/12/26 01:10:12;;;;;;;8.80;3.40;;;9.90;99.90;;;;;;5027014;28;20234;-72
2022/12/26 01:12:38;;;;;;;4.73;3.30;;;9.90;99.90;;;;;;5029598;28;20318;-72
2022/12/26 01:15:06;;;;;;;5.90;3.17;;;9.90;99.90;;;;;;5010137;28;20454;-72
2022/12/26 01:17:32;;;;;;;5.00;3.27;;;9.90;99.90;;;;;;5012428;28;20467;-72
2022/12/26 01:19:58;;;;;;;4.97;3.40;;;9.90;99.90;;;;;;5029774;28;20557;-72
2022/12/26 01:22:25;;;;;;;4.17;3.00;;;9.90;99.90;;;;;;5031196;28;20541;-71
2022/12/26 01:24:57;;;;;;;6.00;3.40;;;9.90;99.90;;;;;;5031880;28;20243;-72
2022/12/26 01:27:24;;;;;;;6.20;3.90;;;9.90;99.90;;;;;;5032940;28;20450;-72
2022/12/26 01:29:51;;;;;;;3.60;3.30;;;9.90;99.90;;;;;;5010355;28;20466;-72
2022/12/26 01:32:17;;;;;;;4.70;3.20;;;9.90;99.90;;;;;;5050886;28;20509;-72
2022/12/26 01:34:43;;;;;;;3.57;3.13;;;9.90;99.90;;;;;;5010773;28;20498;-72
2022/12/26 01:37:12;;;;;;;6.07;3.37;;;9.90;99.90;;;;;;5029624;28;20691;-72
2022/12/26 01:39:37;;;;;;;3.10;2.80;;;9.90;99.90;;;;;;5029457;28;20223;-72
2022/12/26 01:42:18;;;;;;;6.20;3.13;;;9.90;99.90;;;;;;5035373;28;20592;-72
2022/12/26 01:45:03;;;;;;;4.43;3.30;;;9.90;99.90;;;;;;5043180;28;20442;-72
2022/12/26 01:47:36;;;;;;;3.40;2.50;;;9.90;99.90;;;;;;5009945;28;20455;-72
2022/12/26 01:50:03;;;;;;;5.00;3.50;;;9.90;99.90;;;;;;5025497;28;20570;-71
2022/12/26 01:52:38;;;;;;;4.10;2.77;;;9.90;99.90;;;;;;5011424;28;20522;-72
2022/12/26 01:55:10;;;;;;;3.60;3.00;;;9.90;99.90;;;;;;5017508;28;20461;-71
2022/12/26 01:57:41;;;;;;;3.30;2.60;;;9.90;99.90;;;;;;5031095;28;20461;-72
2022/12/26 02:00:08;;;;;;;4.93;2.70;;;9.90;99.90;;;;;;5018415;28;20508;-72
2022/12/26 02:05:35;;;;;;;6.43;3.40;;;10.00;99.90;;;;;;5030665;28;20446;-72
2022/12/26 02:08:33;;;;;;;9.00;3.77;;;9.90;99.90;;;;;;5031535;28;20462;-72
2022/12/26 02:11:13;;;;;;;5.73;3.43;;;9.90;99.90;;;;;;5028991;28;20854;-72
2022/12/26 02:13:40;;;;;;;3.90;3.17;;;10.00;99.90;;;;;;5031777;28;20485;-72
2022/12/26 02:16:09;;;;;;;4.83;3.83;;;10.00;99.90;;;;;;5032508;28;20485;-73
2022/12/26 02:18:35;;;;;;;3.97;2.80;;;10.00;99.90;;;;;;5028800;28;20487;-72
2022/12/26 02:21:12;;;;;;;3.83;3.10;;;10.00;99.90;;;;;;5028905;28;20520;-73
2022/12/26 02:24:03;;;;;;;6.70;3.07;;;10.00;99.90;;;;;;5012483;28;20216;-72
2022/12/26 02:26:40;;;;;;;3.37;3.00;;;10.00;99.90;;;;;;5015778;28;20459;-72
2022/12/26 02:29:32;;;;;;;4.40;3.10;;;10.00;99.90;;;;;;5045206;28;20454;-72
2022/12/26 02:32:23;;;;;;;4.00;2.93;;;10.00;99.90;;;;;;5030098;28;20522;-73
2022/12/26 02:35:13;;;;;;;4.50;3.50;;;9.90;99.90;;;;;;5032536;28;20462;-72
2022/12/26 02:38:16;;;;;;;4.87;3.33;;;10.00;99.90;;;;;;5029914;28;20496;-73
2022/12/26 02:41:08;;;;;;;7.20;3.50;;;10.00;99.90;;;;;;5027905;28;20877;-72
2022/12/26 02:43:51;;;;;;;3.53;3.10;;;10.00;99.90;;;;;;5032233;28;20462;-73
2022/12/26 03:13:09;;;;;;;3.20;2.87;;;10.00;99.90;;;;;;5028189;28;20458;-72
2022/12/26 03:17:18;;;;;;;3.00;2.47;;;10.10;99.90;;;;;;5030231;28;20455;-72
2022/12/26 03:18:20;;;;;;;4.57;2.97;;;10.10;99.90;;;;;;5031087;28;20538;-72
2022/12/26 03:20:47;;;;;;;3.53;3.23;;;10.10;99.90;;;;;;5029955;28;20446;-72
2022/12/26 03:23:16;;;;;;;4.93;3.00;;;10.10;99.90;;;;;;5013221;28;20529;-73
2022/12/26 03:28:36;;;;;;;4.43;3.20;;;10.10;99.90;;;;;;5022868;28;20430;-72
2022/12/26 03:31:06;;;;;;;3.30;3.00;;;10.10;99.90;;;;;;5031075;28;20450;-73
2022/12/26 03:36:30;;;;;;;2.50;2.30;;;10.10;99.90;;;;;;5047339;28;20458;-73
2022/12/26 04:20:29;;;;;;;3.20;2.70;;;10.10;99.90;;;;;;5042408;28;20442;-72
2022/12/26 04:45:53;;;;;;;3.77;1.90;;;10.10;99.90;;;;;;5026267;28;20490;-72
2022/12/26 04:51:03;;;;;;;4.07;2.40;;;10.10;99.90;;;;;;5040593;28;20466;-72
2022/12/26 04:53:28;;;;;;;3.50;2.60;;;10.10;99.90;;;;;;5014872;28;20472;-72
2022/12/26 04:55:54;;;;;;;2.63;2.40;;;10.10;99.90;;;;;;5030230;28;20219;-72
2022/12/26 04:58:23;;;;;;;3.80;2.67;;;10.10;99.90;;;;;;5015647;28;20247;-72
2022/12/26 05:00:49;;;;;;;4.17;2.93;;;10.10;99.90;;;;;;5011884;28;20228;-72
2022/12/26 05:11:32;;;;;;;4.17;2.60;;;10.20;99.90;;;;;;5029873;28;20459;-73
2022/12/26 05:13:58;;;;;;;3.73;2.30;;;10.20;99.90;;;;;;5029959;28;20563;-73
2022/12/26 05:30:22;;;;;;;3.53;3.03;;;10.20;99.90;;;;;;5030374;28;20458;-72
2022/12/26 05:35:33;;;;;;;4.90;2.40;;;10.20;99.90;;;;;;5043257;28;20447;-72
2022/12/26 05:37:59;;;;;;;4.17;2.40;;;10.20;99.90;;;;;;5045066;28;20497;-73
2022/12/26 05:40:25;;;;;;;2.57;2.37;;;10.20;99.90;;;;;;5012931;28;20466;-72
2022/12/26 05:42:50;;;;;;;3.03;2.60;;;10.20;99.90;;;;;;5029656;28;20227;-73
2022/12/26 05:45:17;;;;;;;4.07;3.20;;;10.20;99.90;;;;;;5011845;28;20243;-72
2022/12/26 05:47:42;;;;;;;5.90;2.80;;;10.30;99.90;;;;;;5009000;28;20818;-72
2022/12/26 05:50:08;;;;;;;5.73;2.83;;;10.30;99.90;;;;;;5032623;28;20916;-72
2022/12/26 05:52:34;;;;;;;3.10;2.27;;;10.20;99.90;;;;;;5017651;28;20238;-72
2022/12/26 05:54:59;;;;;;;2.93;2.47;;;10.20;99.90;;;;;;5033230;28;20243;-72
2022/12/26 05:57:25;;;;;;;3.20;2.60;;;10.20;99.90;;;;;;5029096;28;20729;-73
2022/12/26 05:59:51;;;;;;;3.90;2.90;;;10.20;99.90;;;;;;5032262;28;20211;-72
2022/12/26 06:02:16;;;;;;;5.53;2.70;;;10.20;99.90;;;;;;5011882;28;20220;-72
2022/12/26 06:04:42;;;;;;;2.97;2.67;;;10.20;99.90;;;;;;5033958;28;20242;-73
2022/12/26 06:07:08;;;;;;;5.17;2.60;;;10.20;99.90;;;;;;5017370;28;20492;-72
2022/12/26 06:09:33;;;;;;;8.07;3.77;;;10.20;99.90;;;;;;5033933;28;20302;-72
2022/12/26 06:11:59;;;;;;;2.63;2.43;;;10.20;99.90;;;;;;5017048;28;20247;-73
2022/12/26 06:14:25;;;;;;;3.80;2.67;;;10.30;99.90;;;;;;5017227;28;20769;-72
2022/12/26 06:16:50;;;;;;;4.00;2.60;;;10.30;99.90;;;;;;5031302;28;20226;-73
2022/12/26 06:19:16;;;;;;;2.47;1.90;;;10.30;99.90;;;;;;5044192;28;20231;-73
2022/12/26 06:21:42;;;;;;;8.03;3.07;;;10.20;99.90;;;;;;5019093;28;20224;-72
2022/12/26 06:24:08;;;;;;;3.70;2.57;;;10.30;99.90;;;;;;5016205;28;20211;-72
2022/12/26 06:26:33;;;;;;;2.77;2.57;;;10.30;99.90;;;;;;5049448;28;20231;-72
2022/12/26 06:28:59;;;;;;;4.33;3.27;;;10.30;99.90;;;;;;5013448;28;20721;-73
2022/12/26 06:31:25;;;;;;;5.03;3.30;;;10.30;99.90;;;;;;5033691;28;20224;-71
2022/12/26 06:33:54;;;;;;;2.30;2.10;;;10.30;99.90;;;;;;5021982;28;20281;-73
2022/12/26 06:36:22;;;;;;;2.70;2.50;;;10.30;99.90;;;;;;5031481;28;20215;-72
2022/12/26 06:38:49;;;;;;;5.07;2.80;;;10.30;99.90;;;;;;5031909;28;20496;-72
2022/12/26 06:41:17;;;;;;;6.47;2.70;;;10.30;99.90;;;;;;5029533;28;20508;-72
2022/12/26 06:43:43;;;;;;;3.03;2.77;;;10.40;99.90;;;;;;5016585;28;20508;-73
2022/12/26 06:46:12;;;;;;;3.60;2.83;;;10.40;99.90;;;;;;5033189;28;20973;-72
2022/12/26 06:48:38;;;;;;;3.87;2.80;;;10.40;99.90;;;;;;5012194;28;20239;-72
2022/12/26 06:51:05;;;;;;;4.60;2.53;;;10.40;99.90;;;;;;5043202;28;20462;-72
2022/12/26 06:53:32;;;;;;;3.67;3.20;;;10.40;99.90;;;;;;5033561;28;20262;-73
2022/12/26 06:56:09;;;;;;;3.73;2.80;;;10.40;99.90;;;;;;5015102;28;20451;-73
2022/12/26 06:58:35;;;;;;;3.30;2.60;;;10.40;99.90;;;;;;5012479;28;20835;-73
2022/12/26 07:01:09;;;;;;;3.00;2.70;;;10.50;99.90;;;;;;5014860;28;20462;-72
2022/12/26 07:03:35;;;;;;;4.93;2.77;;;10.50;99.90;;;;;;5008956;28;20470;-72
2022/12/26 07:06:03;;;;;;;3.10;2.70;;;10.50;99.90;;;;;;5031526;28;20962;-72
2022/12/26 07:08:29;;;;;;;8.10;2.97;;;10.50;99.90;;;;;;5034794;28;20216;-72
2022/12/26 07:10:54;;;;;;;4.20;2.73;;;10.50;99.90;;;;;;5008518;28;20967;-72
2022/12/26 07:13:20;;;;;;;2.60;2.40;;;10.50;99.90;;;;;;5031954;28;20251;-72
2022/12/26 07:15:45;;;;;;;2.50;2.30;;;10.60;99.90;;;;;;5024670;28;20227;-72
2022/12/26 07:18:11;;;;;;;4.43;3.47;;;10.50;99.90;;;;;;5028412;28;20258;-72
2022/12/26 07:20:37;;;;;;;5.00;2.70;;;10.60;99.90;;;;;;5025537;28;20241;-72
2022/12/26 07:23:03;;;;;;;3.77;2.53;;;10.60;99.90;;;;;;5013153;28;20706;-73
2022/12/26 07:25:28;;;;;;;2.80;2.10;;;10.60;99.90;;;;;;5031061;28;20220;-72
2022/12/26 07:27:54;;;;;;;3.97;3.00;;;10.60;99.90;;;;;;5044198;28;20215;-72
2022/12/26 07:30:20;;;;;;;3.80;2.93;;;10.60;99.90;;;;;;5015642;28;20220;-73
2022/12/26 07:32:46;;;;;;;3.10;2.80;;;10.60;99.90;;;;;;5012926;28;20216;-73
2022/12/26 07:35:11;;;;;;;4.73;3.00;;;10.60;99.90;;;;;;5011855;28;20797;-72
2022/12/26 07:37:38;;;;;;;5.53;2.60;;;10.60;99.90;;;;;;5016950;28;20593;-72
2022/12/26 07:40:04;;;;;;;3.33;3.03;;;10.60;99.90;;;;;;5031106;28;20463;-72
2022/12/26 07:42:30;;;;;;;3.60;2.50;;;10.60;99.90;;;;;;5032444;28;20220;-72
2022/12/26 07:44:57;;;;;;;4.97;2.80;;;10.60;99.90;;;;;;5029580;28;20489;-73
2022/12/26 07:47:23;;;;;;;3.40;2.63;;;10.60;99.90;;;;;;5027612;28;20494;-72
2022/12/26 07:49:48;;;;;;;3.40;3.10;;;10.60;99.90;;;;;;5012195;28;20224;-72
2022/12/26 07:52:14;;;;;;;2.83;2.60;;;10.60;99.90;;;;;;5008180;28;20218;-72
2022/12/26 07:54:40;;;;;;;5.83;3.33;;;10.60;99.90;;;;;;5013143;28;20231;-72
2022/12/26 07:57:05;;;;;;;3.23;2.90;;;10.50;99.90;;;;;;5013074;28;20220;-73
2022/12/26 07:59:31;;;;;;;4.30;3.10;;;10.60;99.90;;;;;;5013994;28;20242;-72
2022/12/26 08:01:58;;;;;;;4.13;2.40;;;10.50;99.90;;;;;;5030605;28;20225;-72
2022/12/26 08:04:24;;;;;;;4.33;2.93;;;10.50;99.90;;;;;;5030718;28;20216;-72
2022/12/26 08:06:50;;;;;;;3.30;3.00;;;10.50;99.90;;;;;;5004522;28;20463;-72
2022/12/26 08:09:16;;;;;;;4.37;3.00;;;10.50;99.90;;;;;;5030769;28;20442;-72
2022/12/26 08:11:42;;;;;;;3.33;3.03;;;10.50;99.90;;;;;;5016925;28;20698;-72
2022/12/26 08:14:11;;;;;;;9.03;3.63;;;10.50;99.90;;;;;;5028282;28;20247;-72
2022/12/26 08:16:37;;;;;;;4.07;3.00;;;10.50;99.90;;;;;;5028470;28;20481;-72
2022/12/26 08:19:02;;;;;;;6.53;3.60;;;10.50;99.90;;;;;;5010467;28;20958;-73
2022/12/26 08:21:29;;;;;;;2.43;2.23;;;10.50;99.90;;;;;;5014738;28;20219;-72
2022/12/26 08:23:55;;;;;;;5.07;2.73;;;10.50;99.90;;;;;;5030636;28;20462;-72
2022/12/26 08:26:22;;;;;;;3.90;2.80;;;10.50;99.90;;;;;;5031281;28;20483;-72
2022/12/26 08:28:49;;;;;;;3.17;2.77;;;10.50;99.90;;;;;;5007066;28;20219;-73
2022/12/26 08:31:15;;;;;;;5.73;2.63;;;10.50;99.90;;;;;;5010055;28;20469;-72
2022/12/26 08:33:41;;;;;;;8.80;2.70;;;10.50;99.90;;;;;;5031068;28;20555;-72
2022/12/26 08:36:09;;;;;;;2.40;2.20;;;10.50;99.90;;;;;;5029349;28;20496;-72
2022/12/26 08:38:35;;;;;;;3.07;2.77;;;10.50;99.90;;;;;;5029857;28;20829;-72
2022/12/26 08:41:01;;;;;;;2.87;2.50;;;10.50;99.90;;;;;;5030309;28;20462;-73
2022/12/26 08:43:27;;;;;;;3.00;2.73;;;10.50;99.90;;;;;;5029098;28;20463;-72
2022/12/26 08:46:10;;;;;;;3.60;2.90;;;10.50;99.90;;;;;;5008724;28;20223;-72
2022/12/26 08:48:37;;;;;;;2.80;2.60;;;10.60;99.90;;;;;;5031211;28;20228;-72
2022/12/26 08:51:07;;;;;;;3.60;2.77;;;10.60;99.90;;;;;;5036159;28;20463;-72
2022/12/26 08:53:34;;;;;;;4.90;3.03;;;10.50;99.90;;;;;;5030118;28;20471;-72
2022/12/26 08:56:01;;;;;;;4.40;2.97;;;10.50;99.90;;;;;;5013484;28;20458;-73
2022/12/26 08:58:28;;;;;;;4.67;3.37;;;10.60;99.90;;;;;;5009506;28;20458;-72
2022/12/26 09:00:54;;;;;;;4.30;3.77;;;10.60;99.90;;;;;;5027364;28;20466;-72
2022/12/26 09:03:20;;;;;;;5.90;5.23;;;10.60;99.90;;;;;;5013877;28;20463;-72
2022/12/26 09:05:46;;;;;;;4.27;3.57;;;10.60;99.90;;;;;;5046384;28;20227;-72
2022/12/26 09:08:12;;;;;;;4.27;3.47;;;10.60;99.90;;;;;;5011808;28;20458;-72
2022/12/26 09:10:38;;;;;;;6.80;6.20;;;10.60;99.90;;;;;;5026520;28;20462;-72
2022/12/26 09:13:04;;;;;;;29.83;15.20;;;10.60;99.90;;;;;;5029705;28;20474;-72
2022/12/26 09:15:29;;;;;;;20.97;12.70;;;10.60;99.90;;;;;;5030178;28;20227;-72
2022/12/26 09:17:55;;;;;;;5.20;4.30;;;10.60;99.90;;;;;;5043354;28;20307;-72
2022/12/26 09:20:22;;;;;;;2.80;2.53;;;10.60;99.90;;;;;;5030352;28;20691;-71
2022/12/26 09:22:51;;;;;;;2.60;2.07;;;10.60;99.90;;;;;;5011023;28;20537;-72
2022/12/26 09:25:22;;;;;;;2.80;2.60;;;10.60;99.90;;;;;;5028879;28;20500;-72
2022/12/26 09:27:48;;;;;;;3.13;2.40;;;10.60;99.90;;;;;;5042477;28;20459;-72
2022/12/26 09:30:14;;;;;;;2.60;2.40;;;10.60;99.90;;;;;;5029216;28;20558;-72
2022/12/26 09:32:40;;;;;;;3.40;3.20;;;10.60;99.90;;;;;;5015356;28;21056;-72
2022/12/26 09:35:07;;;;;;;2.33;2.23;;;10.60;99.90;;;;;;5009981;28;20211;-72
2022/12/26 09:37:33;;;;;;;4.57;2.80;;;10.60;99.90;;;;;;5026749;28;20479;-71
2022/12/26 09:39:58;;;;;;;7.73;3.50;;;10.60;99.90;;;;;;5009103;28;20469;-73
2022/12/26 09:42:33;;;;;;;3.43;2.43;;;10.60;99.90;;;;;;5045081;28;20890;-72
2022/12/26 09:45:15;;;;;;;3.40;2.93;;;10.60;99.90;;;;;;5025663;28;20222;-72
2022/12/26 09:48:12;;;;;;;2.47;2.27;;;10.60;99.90;;;;;;5028658;28;20526;-72
2022/12/26 09:50:39;;;;;;;2.60;2.40;;;10.70;99.90;;;;;;5027430;28;21321;-71
2022/12/26 09:53:14;;;;;;;2.00;1.83;;;10.70;99.90;;;;;;5006408;28;20474;-72
2022/12/26 09:56:07;;;;;;;2.73;2.50;;;10.70;99.90;;;;;;5013170;28;20469;-72
2022/12/26 09:58:41;;;;;;;2.70;2.37;;;10.70;99.90;;;;;;5023211;28;20570;-72
2022/12/26 10:01:22;;;;;;;4.47;2.63;;;10.70;99.90;;;;;;5037801;28;20450;-71
2022/12/26 10:03:55;;;;;;;3.43;2.07;;;10.70;99.90;;;;;;5043373;28;20507;-72
2022/12/26 10:06:25;;;;;;;2.40;2.17;;;10.70;99.90;;;;;;5038312;28;20902;-72
2022/12/26 10:09:16;;;;;;;2.63;2.50;;;10.80;99.90;;;;;;5026923;28;20448;-72
2022/12/26 10:12:03;;;;;;;2.10;1.87;;;10.80;99.90;;;;;;5020913;28;20447;-72
2022/12/26 10:14:47;;;;;;;1.63;1.53;;;10.80;99.90;;;;;;5011517;28;20499;-72
2022/12/26 10:17:43;;;;;;;2.90;2.03;;;10.80;99.90;;;;;;5026168;28;20466;-72
2022/12/26 10:20:20;;;;;;;1.90;1.80;;;10.80;99.90;;;;;;5011207;28;20458;-72
2022/12/26 10:23:15;;;;;;;1.43;1.30;;;10.80;99.90;;;;;;5024782;28;20455;-72
2022/12/26 10:25:41;;;;;;;2.17;1.70;;;10.80;99.90;;;;;;5014060;28;20477;-72
2022/12/26 10:28:29;;;;;;;1.70;1.57;;;10.80;99.90;;;;;;5013048;28;20961;-72
2022/12/26 10:30:58;;;;;;;2.70;1.90;;;10.70;99.90;;;;;;5030861;28;20601;-72
2022/12/26 10:33:51;;;;;;;2.80;1.97;;;10.80;99.90;;;;;;5029822;28;20532;-72
2022/12/26 10:36:34;;;;;;;7.90;2.77;;;10.80;99.90;;;;;;5044269;28;20450;-72
2022/12/26 10:39:04;;;;;;;5.80;3.80;;;10.80;99.90;;;;;;5030683;28;20494;-72
2022/12/26 10:41:43;;;;;;;7.40;5.77;;;10.80;99.90;;;;;;5015908;28;20512;-72
2022/12/26 10:44:11;;;;;;;11.07;8.07;;;10.80;99.90;;;;;;5018700;28;20473;-72
2022/12/26 10:46:44;;;;;;;6.83;5.10;;;10.80;99.90;;;;;;5033462;28;21009;-72
2022/12/26 10:49:12;;;;;;;3.00;2.73;;;10.70;99.90;;;;;;5031975;28;20478;-73
2022/12/26 10:51:38;;;;;;;19.87;12.23;;;10.80;99.90;;;;;;5032786;28;20458;-72
2022/12/26 10:54:13;;;;;;;6.73;5.70;;;10.80;99.90;;;;;;5032531;28;20893;-72
2022/12/26 10:56:39;;;;;;;3.43;2.90;;;10.80;99.90;;;;;;5032112;28;20969;-72
2022/12/26 10:59:10;;;;;;;4.10;2.97;;;10.80;99.90;;;;;;5022759;28;20459;-73
2022/12/26 11:01:38;;;;;;;2.73;2.53;;;10.80;99.90;;;;;;5040929;28;20549;-73
2022/12/26 11:04:14;;;;;;;2.60;2.40;;;10.90;99.90;;;;;;5032667;28;20478;-72
2022/12/26 11:06:42;;;;;;;3.33;2.20;;;10.90;99.90;;;;;;5031768;28;20466;-72
2022/12/26 11:09:23;;;;;;;4.90;3.10;;;10.90;99.90;;;;;;5030876;28;20436;-73
2022/12/26 11:11:51;;;;;;;2.90;2.70;;;10.90;99.90;;;;;;5032193;28;20953;-73
2022/12/26 11:14:37;;;;;;;3.33;2.33;;;11.00;99.90;;;;;;5021114;28;20466;-72
2022/12/26 11:17:07;;;;;;;3.90;2.40;;;11.00;99.90;;;;;;5027057;28;20550;-73
2022/12/26 11:19:40;;;;;;;2.67;1.87;;;11.00;99.90;;;;;;5018874;28;20456;-73
2022/12/26 11:22:28;;;;;;;2.27;2.07;;;11.00;99.90;;;;;;5032076;28;20463;-72
2022/12/26 11:25:08;;;;;;;2.40;2.20;;;11.00;99.90;;;;;;5031089;28;20458;-72
2022/12/26 11:27:42;;;;;;;3.63;3.33;;;11.10;99.90;;;;;;5018927;28;20450;-72
2022/12/26 11:30:14;;;;;;;24.43;14.10;;;11.10;99.90;;;;;;5029280;28;20446;-73
2022/12/26 11:32:42;;;;;;;22.20;15.30;;;11.10;99.90;;;;;;5031831;28;20467;-73
2022/12/26 11:35:26;;;;;;;10.73;6.03;;;11.10;99.90;;;;;;5017620;28;20460;-73
2022/12/26 11:37:54;;;;;;;5.07;3.33;;;11.10;99.90;;;;;;5018141;28;20488;-71
2022/12/26 11:40:30;;;;;;;2.90;2.37;;;11.10;99.90;;;;;;5024189;28;20452;-73
2022/12/26 11:42:58;;;;;;;2.90;2.10;;;11.20;99.90;;;;;;5045462;28;20894;-72
2022/12/26 11:45:27;;;;;;;2.17;1.53;;;11.20;99.90;;;;;;5031993;28;20454;-72
2022/12/26 11:47:59;;;;;;;2.40;1.50;;;11.20;99.90;;;;;;5012348;28;20462;-72
2022/12/26 11:50:28;;;;;;;8.63;6.80;;;11.20;99.90;;;;;;5018845;28;20468;-72
2022/12/26 11:52:54;;;;;;;10.23;8.20;;;11.20;99.90;;;;;;5036352;28;20478;-73
2022/12/26 11:55:23;;;;;;;16.10;12.37;;;11.30;99.90;;;;;;5041077;28;20537;-72
2022/12/26 11:58:06;;;;;;;36.43;22.20;;;11.30;99.90;;;;;;5011983;28;20274;-72
2022/12/26 12:01:04;;;;;;;22.53;14.50;;;11.30;99.90;;;;;;5046043;28;20454;-73
2022/12/26 12:03:40;;;;;;;17.10;12.77;;;11.30;99.90;;;;;;5006115;28;20450;-72
2022/12/26 12:06:39;;;;;;;8.37;6.50;;;11.30;99.90;;;;;;5022985;28;20462;-73
2022/12/26 12:09:20;;;;;;;8.30;5.47;;;11.30;99.90;;;;;;5019576;28;20451;-73
2022/12/26 12:12:25;;;;;;;3.50;3.20;;;11.30;99.90;;;;;;5027904;28;20450;-73
2022/12/26 12:15:02;;;;;;;6.37;4.37;;;11.30;99.90;;;;;;4984769;28;20500;-73
2022/12/26 12:17:28;;;;;;;4.10;3.60;;;11.30;99.90;;;;;;5026621;28;20462;-73
2022/12/26 12:20:03;;;;;;;4.10;2.43;;;11.30;99.90;;;;;;5028528;28;20450;-73
2022/12/26 12:22:38;;;;;;;2.50;2.30;;;11.40;99.90;;;;;;5035754;28;20232;-72
2022/12/26 12:25:13;;;;;;;3.60;1.90;;;11.40;99.90;;;;;;5030461;28;20508;-71
2022/12/26 12:27:46;;;;;;;2.50;2.03;;;11.30;99.90;;;;;;5022013;28;20445;-74
2022/12/26 12:30:31;;;;;;;2.20;2.00;;;11.40;99.90;;;;;;5014232;28;20495;-73
2022/12/26 12:33:23;;;;;;;2.50;1.97;;;11.40;99.90;;;;;;5027901;28;20477;-73
2022/12/26 12:36:21;;;;;;;5.60;2.20;;;11.40;99.90;;;;;;5046457;28;20521;-73
2022/12/26 12:38:47;;;;;;;5.53;2.00;;;11.40;99.90;;;;;;4982714;28;20466;-72
2022/12/26 12:41:54;;;;;;;3.43;1.73;;;11.40;99.90;;;;;;5023787;28;20434;-73
2022/12/26 12:44:44;;;;;;;1.77;1.60;;;11.40;99.90;;;;;;4975560;28;20216;-73
2022/12/26 12:47:15;;;;;;;2.03;1.67;;;11.40;99.90;;;;;;5040803;28;20469;-72
2022/12/26 12:50:08;;;;;;;2.87;2.10;;;11.40;99.90;;;;;;5028481;28;20451;-73
2022/12/26 12:52:52;;;;;;;1.80;1.70;;;11.40;99.90;;;;;;5027345;28;20455;-73
2022/12/26 12:55:30;;;;;;;2.93;2.50;;;11.40;99.90;;;;;;5024219;28;20485;-73
2022/12/26 12:58:18;;;;;;;3.93;2.40;;;11.40;99.90;;;;;;5006614;28;21036;-72
2022/12/26 13:00:46;;;;;;;5.93;2.57;;;11.40;99.90;;;;;;5002360;28;20906;-73
2022/12/26 13:03:40;;;;;;;4.60;2.23;;;11.40;99.90;;;;;;5043374;28;20977;-73
2022/12/26 13:06:40;;;;;;;3.67;2.40;;;11.40;99.90;;;;;;5046474;28;20982;-72
2022/12/26 13:09:30;;;;;;;2.97;2.67;;;11.40;99.90;;;;;;4962500;28;20955;-73
2022/12/26 13:12:05;;;;;;;18.00;10.57;;;11.40;99.90;;;;;;5018607;28;20493;-72
2022/12/26 13:14:41;;;;;;;49.93;26.17;;;11.40;99.90;;;;;;5028262;28;20540;-72
2022/12/26 13:17:13;;;;;;;64.43;33.13;;;11.40;99.90;;;;;;5037729;28;20501;-73
2022/12/26 13:19:50;;;;;;;113.87;50.67;;;11.40;99.90;;;;;;5030173;28;20465;-72
2022/12/26 13:22:26;;;;;;;128.53;56.23;;;11.40;99.90;;;;;;5028959;28;20454;-72
2022/12/26 13:24:57;;;;;;;77.87;40.57;;;11.40;99.90;;;;;;5027267;28;20465;-72
2022/12/26 13:27:36;;;;;;;68.93;34.97;;;11.40;99.90;;;;;;5030004;28;20557;-72
2022/12/26 13:30:14;;;;;;;32.33;21.40;;;11.40;99.90;;;;;;5030111;28;20463;-72
2022/12/26 13:32:40;;;;;;;14.00;11.10;;;11.40;99.90;;;;;;5016805;28;20478;-72
2022/12/26 13:35:44;;;;;;;5.50;4.33;;;11.40;99.90;;;;;;5047940;28;20479;-72
2022/12/26 13:38:10;;;;;;;2.17;1.97;;;11.40;99.90;;;;;;5009770;28;20454;-73
2022/12/26 13:40:36;;;;;;;2.67;1.70;;;11.30;99.90;;;;;;5017552;28;20426;-74
2022/12/26 13:45:49;;;;;;;2.87;2.10;;;11.30;99.90;;;;;;5029291;28;20216;-72
2022/12/26 13:48:15;;;;;;;2.57;2.37;;;11.30;99.90;;;;;;5027204;28;20530;-72
2022/12/26 13:50:56;;;;;;;4.27;2.80;;;11.30;99.90;;;;;;5045667;28;20528;-72
2022/12/26 13:53:25;;;;;;;1.97;1.80;;;11.20;99.90;;;;;;5028102;28;20227;-72
2022/12/26 13:55:52;;;;;;;2.57;2.00;;;11.20;99.90;;;;;;5028577;28;20454;-73
2022/12/26 13:58:45;;;;;;;2.10;1.77;;;11.20;99.90;;;;;;5027630;28;20454;-72
2022/12/26 14:01:25;;;;;;;6.60;2.17;;;11.20;99.90;;;;;;5023551;28;20450;-72
2022/12/26 14:04:13;;;;;;;3.93;2.13;;;11.30;99.90;;;;;;5011054;28;20466;-73
2022/12/26 14:07:08;;;;;;;8.87;1.97;;;11.20;99.90;;;;;;5025927;28;21008;-72
2022/12/26 14:09:52;;;;;;;3.43;1.70;;;11.20;99.90;;;;;;5013520;28;20462;-72
2022/12/26 14:12:37;;;;;;;2.73;1.67;;;11.20;99.90;;;;;;5027709;28;20537;-73
2022/12/26 14:15:24;;;;;;;4.57;1.33;;;11.20;99.90;;;;;;5023566;28;20474;-73
2022/12/26 14:17:59;;;;;;;2.57;1.30;;;11.20;99.90;;;;;;5008593;28;20458;-73
2022/12/26 14:20:27;;;;;;;1.63;1.53;;;11.10;99.90;;;;;;5000952;28;20445;-72
2022/12/26 14:23:28;;;;;;;1.27;1.20;;;11.10;99.90;;;;;;5033754;28;20445;-72
2022/12/26 14:26:16;;;;;;;4.03;1.27;;;11.10;99.90;;;;;;5031668;28;21078;-72
2022/12/26 14:28:57;;;;;;;2.00;1.40;;;11.10;99.90;;;;;;5029805;28;20462;-72
2022/12/26 14:31:45;;;;;;;1.80;1.30;;;11.10;99.90;;;;;;5020005;28;20489;-72
2022/12/26 14:34:48;;;;;;;3.10;1.90;;;11.10;99.90;;;;;;5021724;28;20491;-73
2022/12/26 14:37:21;;;;;;;2.07;1.53;;;11.10;99.90;;;;;;5030991;28;20499;-73
2022/12/26 14:40:14;;;;;;;5.00;2.07;;;11.00;99.90;;;;;;5015727;28;20469;-72
2022/12/26 14:43:11;;;;;;;4.77;2.40;;;11.00;99.90;;;;;;5015594;28;20458;-73
2022/12/26 14:45:49;;;;;;;3.33;1.90;;;11.00;99.90;;;;;;5022668;28;20481;-73
2022/12/26 14:48:15;;;;;;;3.77;2.40;;;11.00;99.90;;;;;;5026588;28;20488;-72
2022/12/26 14:50:44;;;;;;;1.70;1.60;;;11.00;99.90;;;;;;5032407;28;20454;-71
2022/12/26 14:53:26;;;;;;;3.20;2.03;;;11.00;99.90;;;;;;5032699;28;20220;-73
2022/12/26 14:55:59;;;;;;;2.30;1.60;;;10.90;99.90;;;;;;5032617;28;20442;-73
2022/12/26 14:58:34;;;;;;;3.00;1.70;;;10.90;99.90;;;;;;5015771;28;20436;-73
2022/12/26 15:01:11;;;;;;;3.97;2.73;;;10.90;99.90;;;;;;5033737;28;20470;-72
2022/12/26 15:03:40;;;;;;;7.27;4.87;;;10.90;99.90;;;;;;5013779;28;20805;-72
2022/12/26 15:06:18;;;;;;;8.30;5.80;;;10.90;99.90;;;;;;5046974;28;20447;-72
2022/12/26 15:08:47;;;;;;;11.00;7.40;;;10.90;99.90;;;;;;5015720;28;20847;-73
2022/12/26 15:11:42;;;;;;;10.00;5.30;;;11.00;99.90;;;;;;5012388;28;20501;-72
2022/12/26 15:14:43;;;;;;;5.40;3.63;;;11.00;99.90;;;;;;5028811;28;20449;-72
2022/12/26 15:17:21;;;;;;;4.23;2.50;;;11.00;99.90;;;;;;5025582;28;20461;-72
2022/12/26 15:20:04;;;;;;;18.13;7.40;;;10.90;99.90;;;;;;5020031;28;20458;-72
2022/12/26 15:22:42;;;;;;;18.93;9.10;;;10.80;99.90;;;;;;5024715;28;20446;-72
2022/12/26 15:25:29;;;;;;;4.23;3.00;;;10.70;99.90;;;;;;5048679;28;20466;-72
2022/12/26 15:28:39;;;;;;;2.40;1.80;;;10.60;99.90;;;;;;5031433;28;20453;-72